sensor_id;sensor_type;location;lat;lon;timestamp;P1;durP1;ratioP1;P2;durP2;ratioP2
83842;SDS011;73869;52.336;21.182;2024-02-26T00:00:17;0.35;;;0.35;;
83842;SDS011;73869;52.336;21.182;2024-02-26T00:02:44;0.30;;;0.30;;
83842;SDS011;73869;52.336;21.182;2024-02-26T00:05:12;0.75;;;0.75;;
83842;SDS011;73869;52.336;21.182;2024-02-26T00:07:39;0.40;;;0.40;;
83842;SDS011;73869;52.336;21.182;2024-02-26T00:10:06;0.80;;;0.80;;
83842;SDS011;73869;52.336;21.182;2024-02-26T00:12:33;0.47;;;0.47;;
83842;SDS011;73869;52.336;21.182;2024-02-26T00:15:00;0.22;;;0.22;;
83842;SDS011;73869;52.336;21.182;2024-02-26T00:17:27;0.35;;;0.35;;
83842;SDS011;73869;52.336;21.182;2024-02-26T00:19:53;0.60;;;0.60;;
83842;SDS011;73869;52.336;21.182;2024-02-26T00:22:21;0.68;;;0.68;;
83842;SDS011;73869;52.336;21.182;2024-02-26T00:24:48;0.40;;;0.40;;
83842;SDS011;73869;52.336;21.182;2024-02-26T00:27:15;0.50;;;0.50;;
83842;SDS011;73869;52.336;21.182;2024-02-26T00:29:42;0.73;;;0.73;;
83842;SDS011;73869;52.336;21.182;2024-02-26T00:32:09;0.68;;;0.68;;
83842;SDS011;73869;52.336;21.182;2024-02-26T00:34:35;0.55;;;0.55;;
83842;SDS011;73869;52.336;21.182;2024-02-26T00:37:02;0.22;;;0.22;;
83842;SDS011;73869;52.336;21.182;2024-02-26T00:39:30;0.40;;;0.40;;
83842;SDS011;73869;52.336;21.182;2024-02-26T00:41:57;0.45;;;0.45;;
83842;SDS011;73869;52.336;21.182;2024-02-26T00:44:24;0.60;;;0.60;;
83842;SDS011;73869;52.336;21.182;2024-02-26T00:46:51;0.38;;;0.38;;
83842;SDS011;73869;52.336;21.182;2024-02-26T00:49:18;0.43;;;0.43;;
83842;SDS011;73869;52.336;21.182;2024-02-26T00:51:44;0.47;;;0.47;;
83842;SDS011;73869;52.336;21.182;2024-02-26T00:54:11;0.60;;;0.60;;
83842;SDS011;73869;52.336;21.182;2024-02-26T00:56:39;0.47;;;0.47;;
83842;SDS011;73869;52.336;21.182;2024-02-26T00:59:06;0.40;;;0.40;;
83842;SDS011;73869;52.336;21.182;2024-02-26T01:01:32;0.57;;;0.57;;
83842;SDS011;73869;52.336;21.182;2024-02-26T01:04:00;0.47;;;0.47;;
83842;SDS011;73869;52.336;21.182;2024-02-26T01:06:26;0.55;;;0.55;;
83842;SDS011;73869;52.336;21.182;2024-02-26T01:08:53;0.55;;;0.55;;
83842;SDS011;73869;52.336;21.182;2024-02-26T01:11:20;0.38;;;0.38;;
83842;SDS011;73869;52.336;21.182;2024-02-26T01:13:48;0.40;;;0.40;;
83842;SDS011;73869;52.336;21.182;2024-02-26T01:16:18;0.52;;;0.52;;
83842;SDS011;73869;52.336;21.182;2024-02-26T01:18:45;0.50;;;0.50;;
83842;SDS011;73869;52.336;21.182;2024-02-26T01:21:11;0.40;;;0.40;;
83842;SDS011;73869;52.336;21.182;2024-02-26T01:23:38;0.60;;;0.60;;
83842;SDS011;73869;52.336;21.182;2024-02-26T01:26:05;0.50;;;0.50;;
83842;SDS011;73869;52.336;21.182;2024-02-26T01:28:32;0.50;;;0.50;;
83842;SDS011;73869;52.336;21.182;2024-02-26T01:31:00;0.52;;;0.52;;
83842;SDS011;73869;52.336;21.182;2024-02-26T01:33:28;0.50;;;0.50;;
83842;SDS011;73869;52.336;21.182;2024-02-26T01:35:55;0.30;;;0.30;;
83842;SDS011;73869;52.336;21.182;2024-02-26T01:38:21;0.43;;;0.43;;
83842;SDS011;73869;52.336;21.182;2024-02-26T01:40:48;0.35;;;0.35;;
83842;SDS011;73869;52.336;21.182;2024-02-26T01:43:18;0.65;;;0.65;;
83842;SDS011;73869;52.336;21.182;2024-02-26T01:45:44;0.43;;;0.43;;
83842;SDS011;73869;52.336;21.182;2024-02-26T01:48:12;0.52;;;0.52;;
83842;SDS011;73869;52.336;21.182;2024-02-26T01:50:39;0.95;;;0.95;;
83842;SDS011;73869;52.336;21.182;2024-02-26T01:53:07;0.50;;;0.50;;
83842;SDS011;73869;52.336;21.182;2024-02-26T01:55:35;0.50;;;0.50;;
83842;SDS011;73869;52.336;21.182;2024-02-26T01:58:06;0.40;;;0.40;;
83842;SDS011;73869;52.336;21.182;2024-02-26T02:00:33;0.52;;;0.52;;
83842;SDS011;73869;52.336;21.182;2024-02-26T02:03:00;0.43;;;0.43;;
83842;SDS011;73869;52.336;21.182;2024-02-26T02:05:30;0.55;;;0.55;;
83842;SDS011;73869;52.336;21.182;2024-02-26T02:07:57;0.80;;;0.80;;
83842;SDS011;73869;52.336;21.182;2024-02-26T02:10:25;0.40;;;0.40;;
83842;SDS011;73869;52.336;21.182;2024-02-26T02:12:53;0.47;;;0.47;;
83842;SDS011;73869;52.336;21.182;2024-02-26T02:15:19;0.43;;;0.43;;
83842;SDS011;73869;52.336;21.182;2024-02-26T02:17:46;0.40;;;0.40;;
83842;SDS011;73869;52.336;21.182;2024-02-26T02:20:15;0.50;;;0.50;;
83842;SDS011;73869;52.336;21.182;2024-02-26T02:22:44;0.43;;;0.43;;
83842;SDS011;73869;52.336;21.182;2024-02-26T02:25:11;0.52;;;0.52;;
83842;SDS011;73869;52.336;21.182;2024-02-26T02:27:38;0.82;;;0.82;;
83842;SDS011;73869;52.336;21.182;2024-02-26T02:30:06;0.60;;;0.60;;
83842;SDS011;73869;52.336;21.182;2024-02-26T02:32:34;0.47;;;0.47;;
83842;SDS011;73869;52.336;21.182;2024-02-26T02:35:01;0.50;;;0.50;;
83842;SDS011;73869;52.336;21.182;2024-02-26T02:37:29;0.80;;;0.80;;
83842;SDS011;73869;52.336;21.182;2024-02-26T02:39:57;0.63;;;0.63;;
83842;SDS011;73869;52.336;21.182;2024-02-26T02:42:24;0.57;;;0.57;;
83842;SDS011;73869;52.336;21.182;2024-02-26T02:44:50;0.70;;;0.70;;
83842;SDS011;73869;52.336;21.182;2024-02-26T02:47:17;0.35;;;0.35;;
83842;SDS011;73869;52.336;21.182;2024-02-26T02:49:44;0.50;;;0.50;;
83842;SDS011;73869;52.336;21.182;2024-02-26T02:52:11;0.70;;;0.70;;
83842;SDS011;73869;52.336;21.182;2024-02-26T02:54:37;0.52;;;0.52;;
83842;SDS011;73869;52.336;21.182;2024-02-26T02:57:08;0.82;;;0.82;;
83842;SDS011;73869;52.336;21.182;2024-02-26T02:59:35;0.40;;;0.40;;
83842;SDS011;73869;52.336;21.182;2024-02-26T03:02:03;0.65;;;0.65;;
83842;SDS011;73869;52.336;21.182;2024-02-26T03:04:31;0.55;;;0.55;;
83842;SDS011;73869;52.336;21.182;2024-02-26T03:06:58;0.60;;;0.60;;
83842;SDS011;73869;52.336;21.182;2024-02-26T03:09:25;0.45;;;0.45;;
83842;SDS011;73869;52.336;21.182;2024-02-26T03:11:52;0.43;;;0.43;;
83842;SDS011;73869;52.336;21.182;2024-02-26T03:14:20;0.60;;;0.60;;
83842;SDS011;73869;52.336;21.182;2024-02-26T03:16:47;0.43;;;0.43;;
83842;SDS011;73869;52.336;21.182;2024-02-26T03:19:14;0.55;;;0.55;;
83842;SDS011;73869;52.336;21.182;2024-02-26T03:21:41;0.80;;;0.80;;
83842;SDS011;73869;52.336;21.182;2024-02-26T03:24:08;0.73;;;0.73;;
83842;SDS011;73869;52.336;21.182;2024-02-26T03:26:35;1.02;;;1.02;;
83842;SDS011;73869;52.336;21.182;2024-02-26T03:29:02;0.70;;;0.70;;
83842;SDS011;73869;52.336;21.182;2024-02-26T03:31:30;0.47;;;0.47;;
83842;SDS011;73869;52.336;21.182;2024-02-26T03:33:57;0.73;;;0.73;;
83842;SDS011;73869;52.336;21.182;2024-02-26T03:36:24;0.50;;;0.50;;
83842;SDS011;73869;52.336;21.182;2024-02-26T03:38:50;0.80;;;0.80;;
83842;SDS011;73869;52.336;21.182;2024-02-26T03:41:17;0.60;;;0.60;;
83842;SDS011;73869;52.336;21.182;2024-02-26T03:43:44;0.47;;;0.47;;
83842;SDS011;73869;52.336;21.182;2024-02-26T03:46:11;0.40;;;0.40;;
83842;SDS011;73869;52.336;21.182;2024-02-26T03:48:40;0.43;;;0.43;;
83842;SDS011;73869;52.336;21.182;2024-02-26T03:51:08;0.68;;;0.68;;
83842;SDS011;73869;52.336;21.182;2024-02-26T03:53:34;0.68;;;0.68;;
83842;SDS011;73869;52.336;21.182;2024-02-26T03:56:02;0.50;;;0.50;;
83842;SDS011;73869;52.336;21.182;2024-02-26T03:58:30;0.63;;;0.63;;
83842;SDS011;73869;52.336;21.182;2024-02-26T04:00:56;1.05;;;1.05;;
83842;SDS011;73869;52.336;21.182;2024-02-26T04:03:23;0.90;;;0.90;;
83842;SDS011;73869;52.336;21.182;2024-02-26T04:05:52;0.60;;;0.60;;
83842;SDS011;73869;52.336;21.182;2024-02-26T04:08:18;0.43;;;0.43;;
83842;SDS011;73869;52.336;21.182;2024-02-26T04:10:45;0.80;;;0.80;;
83842;SDS011;73869;52.336;21.182;2024-02-26T04:13:12;0.43;;;0.43;;
83842;SDS011;73869;52.336;21.182;2024-02-26T04:15:38;0.35;;;0.35;;
83842;SDS011;73869;52.336;21.182;2024-02-26T04:18:05;0.45;;;0.45;;
83842;SDS011;73869;52.336;21.182;2024-02-26T04:20:32;0.90;;;0.90;;
83842;SDS011;73869;52.336;21.182;2024-02-26T04:23:00;1.02;;;1.02;;
83842;SDS011;73869;52.336;21.182;2024-02-26T04:25:26;0.40;;;0.40;;
83842;SDS011;73869;52.336;21.182;2024-02-26T04:27:53;0.40;;;0.40;;
83842;SDS011;73869;52.336;21.182;2024-02-26T04:30:20;0.50;;;0.50;;
83842;SDS011;73869;52.336;21.182;2024-02-26T04:32:47;0.70;;;0.70;;
83842;SDS011;73869;52.336;21.182;2024-02-26T04:35:14;0.45;;;0.45;;
83842;SDS011;73869;52.336;21.182;2024-02-26T04:37:41;0.40;;;0.40;;
83842;SDS011;73869;52.336;21.182;2024-02-26T04:40:09;0.65;;;0.65;;
83842;SDS011;73869;52.336;21.182;2024-02-26T04:42:36;0.70;;;0.70;;
83842;SDS011;73869;52.336;21.182;2024-02-26T04:45:03;0.70;;;0.70;;
83842;SDS011;73869;52.336;21.182;2024-02-26T04:47:32;0.70;;;0.70;;
83842;SDS011;73869;52.336;21.182;2024-02-26T04:49:58;0.70;;;0.70;;
83842;SDS011;73869;52.336;21.182;2024-02-26T04:52:25;1.20;;;1.20;;
83842;SDS011;73869;52.336;21.182;2024-02-26T04:54:52;0.60;;;0.60;;
83842;SDS011;73869;52.336;21.182;2024-02-26T04:57:21;0.63;;;0.63;;
83842;SDS011;73869;52.336;21.182;2024-02-26T04:59:47;0.90;;;0.90;;
83842;SDS011;73869;52.336;21.182;2024-02-26T05:02:14;0.50;;;0.50;;
83842;SDS011;73869;52.336;21.182;2024-02-26T05:04:41;0.80;;;0.80;;
83842;SDS011;73869;52.336;21.182;2024-02-26T05:07:07;0.73;;;0.73;;
83842;SDS011;73869;52.336;21.182;2024-02-26T05:09:34;0.70;;;0.70;;
83842;SDS011;73869;52.336;21.182;2024-02-26T05:12:01;0.70;;;0.70;;
83842;SDS011;73869;52.336;21.182;2024-02-26T05:14:30;0.55;;;0.55;;
83842;SDS011;73869;52.336;21.182;2024-02-26T05:16:57;0.52;;;0.52;;
83842;SDS011;73869;52.336;21.182;2024-02-26T05:19:23;1.23;;;1.15;;
83842;SDS011;73869;52.336;21.182;2024-02-26T05:21:50;0.80;;;0.80;;
83842;SDS011;73869;52.336;21.182;2024-02-26T05:24:17;0.60;;;0.60;;
83842;SDS011;73869;52.336;21.182;2024-02-26T05:26:44;0.80;;;0.80;;
83842;SDS011;73869;52.336;21.182;2024-02-26T05:29:11;0.60;;;0.60;;
83842;SDS011;73869;52.336;21.182;2024-02-26T05:31:41;0.73;;;0.73;;
83842;SDS011;73869;52.336;21.182;2024-02-26T05:34:08;0.68;;;0.68;;
83842;SDS011;73869;52.336;21.182;2024-02-26T05:36:35;1.00;;;1.00;;
83842;SDS011;73869;52.336;21.182;2024-02-26T05:39:02;0.75;;;0.75;;
83842;SDS011;73869;52.336;21.182;2024-02-26T05:41:29;0.70;;;0.70;;
83842;SDS011;73869;52.336;21.182;2024-02-26T05:43:56;0.75;;;0.75;;
83842;SDS011;73869;52.336;21.182;2024-02-26T05:46:23;0.63;;;0.63;;
83842;SDS011;73869;52.336;21.182;2024-02-26T05:48:52;0.40;;;0.40;;
83842;SDS011;73869;52.336;21.182;2024-02-26T05:51:18;0.80;;;0.80;;
83842;SDS011;73869;52.336;21.182;2024-02-26T05:53:45;0.77;;;0.77;;
83842;SDS011;73869;52.336;21.182;2024-02-26T05:56:19;1.35;;;1.35;;
83842;SDS011;73869;52.336;21.182;2024-02-26T05:58:46;0.30;;;0.30;;
83842;SDS011;73869;52.336;21.182;2024-02-26T06:01:15;0.45;;;0.45;;
83842;SDS011;73869;52.336;21.182;2024-02-26T06:03:42;0.70;;;0.70;;
83842;SDS011;73869;52.336;21.182;2024-02-26T06:06:10;0.70;;;0.70;;
83842;SDS011;73869;52.336;21.182;2024-02-26T06:08:36;0.70;;;0.70;;
83842;SDS011;73869;52.336;21.182;2024-02-26T06:11:04;0.70;;;0.70;;
83842;SDS011;73869;52.336;21.182;2024-02-26T06:13:32;0.70;;;0.70;;
83842;SDS011;73869;52.336;21.182;2024-02-26T06:15:58;0.68;;;0.68;;
83842;SDS011;73869;52.336;21.182;2024-02-26T06:18:25;0.77;;;0.77;;
83842;SDS011;73869;52.336;21.182;2024-02-26T06:20:52;0.55;;;0.55;;
83842;SDS011;73869;52.336;21.182;2024-02-26T06:23:20;0.63;;;0.63;;
83842;SDS011;73869;52.336;21.182;2024-02-26T06:25:47;0.70;;;0.70;;
83842;SDS011;73869;52.336;21.182;2024-02-26T06:28:14;0.52;;;0.52;;
83842;SDS011;73869;52.336;21.182;2024-02-26T06:30:40;0.70;;;0.70;;
83842;SDS011;73869;52.336;21.182;2024-02-26T06:33:07;0.50;;;0.50;;
83842;SDS011;73869;52.336;21.182;2024-02-26T06:35:34;0.80;;;0.80;;
83842;SDS011;73869;52.336;21.182;2024-02-26T06:38:01;0.43;;;0.43;;
83842;SDS011;73869;52.336;21.182;2024-02-26T06:40:30;0.50;;;0.50;;
83842;SDS011;73869;52.336;21.182;2024-02-26T06:42:56;0.60;;;0.60;;
83842;SDS011;73869;52.336;21.182;2024-02-26T06:45:23;0.60;;;0.60;;
83842;SDS011;73869;52.336;21.182;2024-02-26T06:47:49;0.82;;;0.82;;
83842;SDS011;73869;52.336;21.182;2024-02-26T06:50:16;0.82;;;0.82;;
83842;SDS011;73869;52.336;21.182;2024-02-26T06:52:44;0.45;;;0.45;;
83842;SDS011;73869;52.336;21.182;2024-02-26T06:55:11;0.55;;;0.55;;
83842;SDS011;73869;52.336;21.182;2024-02-26T06:57:39;0.57;;;0.57;;
83842;SDS011;73869;52.336;21.182;2024-02-26T07:00:07;0.80;;;0.80;;
83842;SDS011;73869;52.336;21.182;2024-02-26T07:02:39;1.05;;;1.00;;
83842;SDS011;73869;52.336;21.182;2024-02-26T07:05:07;0.85;;;0.85;;
83842;SDS011;73869;52.336;21.182;2024-02-26T07:07:34;0.95;;;0.95;;
83842;SDS011;73869;52.336;21.182;2024-02-26T07:10:01;0.75;;;0.75;;
83842;SDS011;73869;52.336;21.182;2024-02-26T07:12:29;0.90;;;0.90;;
83842;SDS011;73869;52.336;21.182;2024-02-26T07:14:57;0.70;;;0.70;;
83842;SDS011;73869;52.336;21.182;2024-02-26T07:17:24;0.90;;;0.90;;
83842;SDS011;73869;52.336;21.182;2024-02-26T07:19:50;0.40;;;0.40;;
83842;SDS011;73869;52.336;21.182;2024-02-26T07:22:17;0.73;;;0.73;;
83842;SDS011;73869;52.336;21.182;2024-02-26T07:24:44;1.13;;;1.13;;
83842;SDS011;73869;52.336;21.182;2024-02-26T07:27:10;1.02;;;1.02;;
83842;SDS011;73869;52.336;21.182;2024-02-26T07:29:37;0.98;;;0.98;;
83842;SDS011;73869;52.336;21.182;2024-02-26T07:32:06;1.25;;;1.25;;
83842;SDS011;73869;52.336;21.182;2024-02-26T07:34:32;1.23;;;1.23;;
83842;SDS011;73869;52.336;21.182;2024-02-26T07:36:59;1.15;;;1.15;;
83842;SDS011;73869;52.336;21.182;2024-02-26T07:39:26;1.23;;;1.23;;
83842;SDS011;73869;52.336;21.182;2024-02-26T07:41:53;1.20;;;1.20;;
83842;SDS011;73869;52.336;21.182;2024-02-26T07:44:19;1.02;;;1.02;;
83842;SDS011;73869;52.336;21.182;2024-02-26T07:46:47;1.05;;;1.05;;
83842;SDS011;73869;52.336;21.182;2024-02-26T07:49:14;0.57;;;0.57;;
83842;SDS011;73869;52.336;21.182;2024-02-26T07:51:41;0.32;;;0.32;;
83842;SDS011;73869;52.336;21.182;2024-02-26T07:54:07;0.47;;;0.47;;
83842;SDS011;73869;52.336;21.182;2024-02-26T07:56:34;0.90;;;0.90;;
83842;SDS011;73869;52.336;21.182;2024-02-26T07:59:01;0.40;;;0.40;;
83842;SDS011;73869;52.336;21.182;2024-02-26T08:01:28;0.30;;;0.30;;
83842;SDS011;73869;52.336;21.182;2024-02-26T08:03:54;0.38;;;0.38;;
83842;SDS011;73869;52.336;21.182;2024-02-26T08:06:23;0.43;;;0.43;;
83842;SDS011;73869;52.336;21.182;2024-02-26T08:08:50;0.40;;;0.28;;
83842;SDS011;73869;52.336;21.182;2024-02-26T08:11:16;0.22;;;0.22;;
83842;SDS011;73869;52.336;21.182;2024-02-26T08:13:43;0.50;;;0.50;;
83842;SDS011;73869;52.336;21.182;2024-02-26T08:16:10;0.35;;;0.35;;
83842;SDS011;73869;52.336;21.182;2024-02-26T08:18:37;0.47;;;0.47;;
83842;SDS011;73869;52.336;21.182;2024-02-26T08:21:04;0.55;;;0.55;;
83842;SDS011;73869;52.336;21.182;2024-02-26T08:23:32;0.10;;;0.10;;
83842;SDS011;73869;52.336;21.182;2024-02-26T08:25:59;0.30;;;0.30;;
83842;SDS011;73869;52.336;21.182;2024-02-26T08:28:26;0.38;;;0.38;;
83842;SDS011;73869;52.336;21.182;2024-02-26T08:30:52;0.30;;;0.30;;
83842;SDS011;73869;52.336;21.182;2024-02-26T08:33:19;0.40;;;0.40;;
83842;SDS011;73869;52.336;21.182;2024-02-26T08:35:46;0.13;;;0.13;;
83842;SDS011;73869;52.336;21.182;2024-02-26T08:38:13;0.30;;;0.30;;
83842;SDS011;73869;52.336;21.182;2024-02-26T08:40:41;0.10;;;0.10;;
83842;SDS011;73869;52.336;21.182;2024-02-26T08:43:08;0.28;;;0.28;;
83842;SDS011;73869;52.336;21.182;2024-02-26T08:45:35;0.30;;;0.30;;
83842;SDS011;73869;52.336;21.182;2024-02-26T08:48:01;0.28;;;0.28;;
83842;SDS011;73869;52.336;21.182;2024-02-26T08:50:28;0.22;;;0.22;;
83842;SDS011;73869;52.336;21.182;2024-02-26T08:52:55;0.10;;;0.10;;
83842;SDS011;73869;52.336;21.182;2024-02-26T08:55:22;0.10;;;0.10;;
83842;SDS011;73869;52.336;21.182;2024-02-26T08:57:50;0.20;;;0.20;;
83842;SDS011;73869;52.336;21.182;2024-02-26T09:00:17;0.30;;;0.30;;
83842;SDS011;73869;52.336;21.182;2024-02-26T09:02:45;0.50;;;0.50;;
83842;SDS011;73869;52.336;21.182;2024-02-26T09:05:12;0.35;;;0.35;;
83842;SDS011;73869;52.336;21.182;2024-02-26T09:07:39;0.10;;;0.10;;
83842;SDS011;73869;52.336;21.182;2024-02-26T09:10:06;0.15;;;0.15;;
83842;SDS011;73869;52.336;21.182;2024-02-26T09:12:35;0.20;;;0.20;;
83842;SDS011;73869;52.336;21.182;2024-02-26T09:15:04;0.10;;;0.10;;
83842;SDS011;73869;52.336;21.182;2024-02-26T09:17:31;0.13;;;0.13;;
83842;SDS011;73869;52.336;21.182;2024-02-26T09:19:58;0.13;;;0.13;;
83842;SDS011;73869;52.336;21.182;2024-02-26T09:22:25;0.22;;;0.22;;
83842;SDS011;73869;52.336;21.182;2024-02-26T09:24:51;0.30;;;0.30;;
83842;SDS011;73869;52.336;21.182;2024-02-26T09:27:18;0.30;;;0.30;;
83842;SDS011;73869;52.336;21.182;2024-02-26T09:29:45;0.22;;;0.22;;
83842;SDS011;73869;52.336;21.182;2024-02-26T09:32:13;0.13;;;0.13;;
83842;SDS011;73869;52.336;21.182;2024-02-26T09:34:40;0.10;;;0.10;;
83842;SDS011;73869;52.336;21.182;2024-02-26T09:37:07;0.20;;;0.20;;
83842;SDS011;73869;52.336;21.182;2024-02-26T09:39:34;0.20;;;0.20;;
83842;SDS011;73869;52.336;21.182;2024-02-26T09:42:00;0.20;;;0.20;;
83842;SDS011;73869;52.336;21.182;2024-02-26T09:44:34;0.28;;;0.28;;
83842;SDS011;73869;52.336;21.182;2024-02-26T09:47:03;0.20;;;0.20;;
83842;SDS011;73869;52.336;21.182;2024-02-26T09:49:35;0.17;;;0.17;;
83842;SDS011;73869;52.336;21.182;2024-02-26T09:52:03;0.13;;;0.13;;
83842;SDS011;73869;52.336;21.182;2024-02-26T09:54:31;0.10;;;0.10;;
83842;SDS011;73869;52.336;21.182;2024-02-26T09:56:59;0.28;;;0.28;;
83842;SDS011;73869;52.336;21.182;2024-02-26T09:59:29;0.35;;;0.35;;
83842;SDS011;73869;52.336;21.182;2024-02-26T10:02:00;0.25;;;0.25;;
83842;SDS011;73869;52.336;21.182;2024-02-26T10:04:28;0.13;;;0.13;;
83842;SDS011;73869;52.336;21.182;2024-02-26T10:06:56;0.17;;;0.17;;
83842;SDS011;73869;52.336;21.182;2024-02-26T10:09:25;0.17;;;0.17;;
83842;SDS011;73869;52.336;21.182;2024-02-26T10:11:53;0.20;;;0.20;;
83842;SDS011;73869;52.336;21.182;2024-02-26T10:14:20;0.20;;;0.20;;
83842;SDS011;73869;52.336;21.182;2024-02-26T10:16:47;0.13;;;0.13;;
83842;SDS011;73869;52.336;21.182;2024-02-26T10:19:24;0.13;;;0.13;;
83842;SDS011;73869;52.336;21.182;2024-02-26T10:21:52;0.13;;;0.13;;
83842;SDS011;73869;52.336;21.182;2024-02-26T10:24:24;0.20;;;0.20;;
83842;SDS011;73869;52.336;21.182;2024-02-26T10:26:51;0.20;;;0.20;;
83842;SDS011;73869;52.336;21.182;2024-02-26T10:29:18;0.17;;;0.17;;
83842;SDS011;73869;52.336;21.182;2024-02-26T10:31:45;0.40;;;0.40;;
83842;SDS011;73869;52.336;21.182;2024-02-26T10:34:11;0.32;;;0.32;;
83842;SDS011;73869;52.336;21.182;2024-02-26T10:36:39;0.20;;;0.20;;
83842;SDS011;73869;52.336;21.182;2024-02-26T10:39:07;0.13;;;0.13;;
83842;SDS011;73869;52.336;21.182;2024-02-26T10:41:34;0.15;;;0.15;;
83842;SDS011;73869;52.336;21.182;2024-02-26T10:44:01;0.03;;;0.03;;
83842;SDS011;73869;52.336;21.182;2024-02-26T10:46:29;0.25;;;0.25;;
83842;SDS011;73869;52.336;21.182;2024-02-26T10:48:55;0.30;;;0.30;;
83842;SDS011;73869;52.336;21.182;2024-02-26T10:51:25;0.13;;;0.13;;
83842;SDS011;73869;52.336;21.182;2024-02-26T10:53:55;0.20;;;0.20;;
83842;SDS011;73869;52.336;21.182;2024-02-26T10:58:54;0.10;;;0.10;;
83842;SDS011;73869;52.336;21.182;2024-02-26T11:01:21;0.13;;;0.13;;
83842;SDS011;73869;52.336;21.182;2024-02-26T11:03:50;0.13;;;0.13;;
83842;SDS011;73869;52.336;21.182;2024-02-26T11:06:18;0.15;;;0.15;;
83842;SDS011;73869;52.336;21.182;2024-02-26T11:08:47;0.22;;;0.22;;
83842;SDS011;73869;52.336;21.182;2024-02-26T11:11:15;0.10;;;0.10;;
83842;SDS011;73869;52.336;21.182;2024-02-26T11:13:43;0.20;;;0.20;;
83842;SDS011;73869;52.336;21.182;2024-02-26T11:16:16;0.22;;;0.22;;
83842;SDS011;73869;52.336;21.182;2024-02-26T11:18:46;0.30;;;0.30;;
83842;SDS011;73869;52.336;21.182;2024-02-26T11:21:15;0.28;;;0.28;;
83842;SDS011;73869;52.336;21.182;2024-02-26T11:23:44;0.17;;;0.17;;
83842;SDS011;73869;52.336;21.182;2024-02-26T11:26:11;0.30;;;0.30;;
83842;SDS011;73869;52.336;21.182;2024-02-26T11:28:40;0.30;;;0.30;;
83842;SDS011;73869;52.336;21.182;2024-02-26T11:31:09;0.22;;;0.22;;
83842;SDS011;73869;52.336;21.182;2024-02-26T11:33:37;0.20;;;0.20;;
83842;SDS011;73869;52.336;21.182;2024-02-26T11:36:07;0.22;;;0.22;;
83842;SDS011;73869;52.336;21.182;2024-02-26T11:38:35;0.30;;;0.30;;
83842;SDS011;73869;52.336;21.182;2024-02-26T11:41:02;0.13;;;0.13;;
83842;SDS011;73869;52.336;21.182;2024-02-26T11:43:49;0.30;;;0.30;;
83842;SDS011;73869;52.336;21.182;2024-02-26T11:46:28;0.30;;;0.30;;
83842;SDS011;73869;52.336;21.182;2024-02-26T11:48:58;0.17;;;0.17;;
83842;SDS011;73869;52.336;21.182;2024-02-26T11:51:26;0.32;;;0.32;;
83842;SDS011;73869;52.336;21.182;2024-02-26T11:53:54;0.20;;;0.20;;
83842;SDS011;73869;52.336;21.182;2024-02-26T11:56:23;0.20;;;0.20;;
83842;SDS011;73869;52.336;21.182;2024-02-26T11:58:59;0.10;;;0.10;;
83842;SDS011;73869;52.336;21.182;2024-02-26T12:01:41;0.20;;;0.20;;
83842;SDS011;73869;52.336;21.182;2024-02-26T12:04:13;0.30;;;0.30;;
83842;SDS011;73869;52.336;21.182;2024-02-26T12:06:46;0.28;;;0.28;;
83842;SDS011;73869;52.336;21.182;2024-02-26T12:12:03;0.15;;;0.15;;
83842;SDS011;73869;52.336;21.182;2024-02-26T12:14:32;0.13;;;0.13;;
83842;SDS011;73869;52.336;21.182;2024-02-26T12:17:02;0.03;;;0.03;;
83842;SDS011;73869;52.336;21.182;2024-02-26T12:19:32;0.52;;;0.52;;
83842;SDS011;73869;52.336;21.182;2024-02-26T12:22:00;0.03;;;0.03;;
83842;SDS011;73869;52.336;21.182;2024-02-26T12:24:26;0.10;;;0.10;;
83842;SDS011;73869;52.336;21.182;2024-02-26T12:26:53;0.13;;;0.13;;
83842;SDS011;73869;52.336;21.182;2024-02-26T12:29:20;0.13;;;0.13;;
83842;SDS011;73869;52.336;21.182;2024-02-26T12:31:47;0.03;;;0.03;;
83842;SDS011;73869;52.336;21.182;2024-02-26T12:34:15;0.13;;;0.13;;
83842;SDS011;73869;52.336;21.182;2024-02-26T12:36:42;0.20;;;0.20;;
83842;SDS011;73869;52.336;21.182;2024-02-26T12:39:08;0.28;;;0.28;;
83842;SDS011;73869;52.336;21.182;2024-02-26T12:41:35;0.10;;;0.10;;
83842;SDS011;73869;52.336;21.182;2024-02-26T12:44:04;0.20;;;0.20;;
83842;SDS011;73869;52.336;21.182;2024-02-26T12:46:32;0.05;;;0.05;;
83842;SDS011;73869;52.336;21.182;2024-02-26T12:48:59;0.30;;;0.30;;
83842;SDS011;73869;52.336;21.182;2024-02-26T12:51:27;0.30;;;0.30;;
83842;SDS011;73869;52.336;21.182;2024-02-26T12:53:54;0.25;;;0.25;;
83842;SDS011;73869;52.336;21.182;2024-02-26T12:56:22;0.10;;;0.10;;
83842;SDS011;73869;52.336;21.182;2024-02-26T12:58:50;0.13;;;0.13;;
83842;SDS011;73869;52.336;21.182;2024-02-26T13:01:19;0.10;;;0.10;;
83842;SDS011;73869;52.336;21.182;2024-02-26T13:03:48;0.10;;;0.10;;
83842;SDS011;73869;52.336;21.182;2024-02-26T13:06:15;0.10;;;0.10;;
83842;SDS011;73869;52.336;21.182;2024-02-26T13:08:45;0.20;;;0.20;;
83842;SDS011;73869;52.336;21.182;2024-02-26T13:11:12;0.03;;;0.03;;
83842;SDS011;73869;52.336;21.182;2024-02-26T13:13:38;0.08;;;0.08;;
83842;SDS011;73869;52.336;21.182;2024-02-26T13:16:05;0.20;;;0.20;;
83842;SDS011;73869;52.336;21.182;2024-02-26T13:18:33;0.13;;;0.13;;
83842;SDS011;73869;52.336;21.182;2024-02-26T13:21:08;0.05;;;0.05;;
83842;SDS011;73869;52.336;21.182;2024-02-26T13:23:36;0.10;;;0.10;;
83842;SDS011;73869;52.336;21.182;2024-02-26T13:26:05;0.13;;;0.13;;
83842;SDS011;73869;52.336;21.182;2024-02-26T13:28:32;0.30;;;0.30;;
83842;SDS011;73869;52.336;21.182;2024-02-26T13:30:59;0.03;;;0.03;;
83842;SDS011;73869;52.336;21.182;2024-02-26T13:33:28;0.13;;;0.13;;
83842;SDS011;73869;52.336;21.182;2024-02-26T13:35:56;0.20;;;0.20;;
83842;SDS011;73869;52.336;21.182;2024-02-26T13:38:24;0.10;;;0.10;;
83842;SDS011;73869;52.336;21.182;2024-02-26T13:40:51;0.22;;;0.22;;
83842;SDS011;73869;52.336;21.182;2024-02-26T13:43:19;0.13;;;0.10;;
83842;SDS011;73869;52.336;21.182;2024-02-26T13:45:46;0.10;;;0.10;;
83842;SDS011;73869;52.336;21.182;2024-02-26T13:48:14;0.13;;;0.13;;
83842;SDS011;73869;52.336;21.182;2024-02-26T13:50:41;0.30;;;0.30;;
83842;SDS011;73869;52.336;21.182;2024-02-26T13:53:10;0.15;;;0.15;;
83842;SDS011;73869;52.336;21.182;2024-02-26T13:55:37;0.13;;;0.13;;
83842;SDS011;73869;52.336;21.182;2024-02-26T13:58:07;0.17;;;0.17;;
83842;SDS011;73869;52.336;21.182;2024-02-26T14:00:38;0.08;;;0.08;;
83842;SDS011;73869;52.336;21.182;2024-02-26T14:03:06;0.08;;;0.08;;
83842;SDS011;73869;52.336;21.182;2024-02-26T14:05:33;0.08;;;0.08;;
83842;SDS011;73869;52.336;21.182;2024-02-26T14:08:00;0.10;;;0.10;;
83842;SDS011;73869;52.336;21.182;2024-02-26T14:10:27;0.13;;;0.13;;
83842;SDS011;73869;52.336;21.182;2024-02-26T14:12:55;0.30;;;0.30;;
83842;SDS011;73869;52.336;21.182;2024-02-26T14:15:22;0.15;;;0.15;;
83842;SDS011;73869;52.336;21.182;2024-02-26T14:17:51;0.10;;;0.10;;
83842;SDS011;73869;52.336;21.182;2024-02-26T14:20:21;0.13;;;0.13;;
83842;SDS011;73869;52.336;21.182;2024-02-26T14:22:48;0.13;;;0.13;;
83842;SDS011;73869;52.336;21.182;2024-02-26T14:25:15;0.15;;;0.15;;
83842;SDS011;73869;52.336;21.182;2024-02-26T14:27:42;0.10;;;0.10;;
83842;SDS011;73869;52.336;21.182;2024-02-26T14:30:09;0.10;;;0.10;;
83842;SDS011;73869;52.336;21.182;2024-02-26T14:32:36;0.30;;;0.30;;
83842;SDS011;73869;52.336;21.182;2024-02-26T14:35:05;0.30;;;0.30;;
83842;SDS011;73869;52.336;21.182;2024-02-26T14:37:34;0.10;;;0.10;;
83842;SDS011;73869;52.336;21.182;2024-02-26T14:40:01;0.30;;;0.30;;